Time;durP1;ratioP1;P1;durP2;ratioP2;P2;SDS_P1;SDS_P2;PMS_P1;PMS_P2;Temp;Humidity;BMP_temperature;BMP_pressure;BME280_temperature;BME280_humidity;BME280_pressure;Samples;Min_cycle;Max_cycle;Signal;HPM_P1;HPM_P2
2022/03/18 00:02:22;;;;;;;;;;;10.70;99.90;;;;;;4996654;28;20289;-73
2022/03/18 00:04:49;;;;;;;;;;;10.50;99.90;;;;;;4996599;28;19916;-73
2022/03/18 00:07:15;;;;;;;;;;;10.50;99.90;;;;;;4995335;28;20300;-74
2022/03/18 00:09:41;;;;;;;;;;;10.50;99.90;;;;;;4996556;28;19936;-73
2022/03/18 00:12:08;;;;;;;;;;;10.40;99.90;;;;;;4996193;28;19917;-74
2022/03/18 00:14:34;;;;;;;;;;;10.40;99.90;;;;;;4996215;28;20004;-74
2022/03/18 00:17:00;;;;;;;;;;;10.50;99.90;;;;;;4996005;28;19973;-74
2022/03/18 00:19:27;;;;;;;;;;;10.40;99.90;;;;;;4996402;28;19925;-73
2022/03/18 00:22:00;;;;;;;;;;;10.50;99.90;;;;;;4996386;28;20005;-73
2022/03/18 00:24:25;;;;;;;;;;;10.40;99.90;;;;;;4994787;28;20274;-73
2022/03/18 00:26:51;;;;;;;;;;;10.40;99.90;;;;;;4996395;28;19910;-73
2022/03/18 00:29:17;;;;;;;;;;;10.40;99.90;;;;;;4996051;28;20384;-73
2022/03/18 00:31:43;;;;;;;;;;;10.40;99.90;;;;;;4995470;28;19918;-74
2022/03/18 00:34:10;;;;;;;;;;;10.30;99.90;;;;;;4996319;28;20013;-74
2022/03/18 00:36:36;;;;;;;;;;;10.40;99.90;;;;;;4996236;28;19910;-73
2022/03/18 00:39:02;;;;;;;;;;;10.30;99.90;;;;;;4995884;28;19921;-74
2022/03/18 00:41:27;;;;;;;;;;;10.40;99.90;;;;;;4995966;28;19940;-73
2022/03/18 00:43:53;;;;;;;;;;;10.40;99.90;;;;;;4996193;28;19925;-74
2022/03/18 00:46:22;;;;;;;;;;;10.40;99.90;;;;;;4996297;28;19980;-74
2022/03/18 00:54:20;;;;;;;;;;;10.20;99.90;;;;;;4976733;28;19917;-74
2022/03/18 00:56:46;;;;;;;;;;;10.20;99.90;;;;;;4976884;28;20687;-73
2022/03/18 00:59:11;;;;;;;;;;;10.20;99.90;;;;;;4976061;28;19910;-74
2022/03/18 01:01:37;;;;;;;;;;;10.20;99.90;;;;;;4978564;28;19950;-74
2022/03/18 01:04:04;;;;;;;;;;;10.30;99.90;;;;;;4995561;28;19913;-73
2022/03/18 01:06:30;;;;;;;;;;;10.10;99.90;;;;;;4995473;28;19910;-74
2022/03/18 01:08:56;;;;;;;;;;;10.20;99.90;;;;;;4995453;28;19952;-74
2022/03/18 01:11:22;;;;;;;;;;;10.20;99.90;;;;;;4995165;28;19945;-74
2022/03/18 01:13:47;;;;;;;;;;;10.20;99.90;;;;;;4995679;28;20309;-74
2022/03/18 01:16:13;;;;;;;;;;;10.10;99.90;;;;;;4994953;28;19909;-74
2022/03/18 01:18:39;;;;;;;;;;;10.10;99.90;;;;;;5009151;28;19945;-74
2022/03/18 01:21:05;;;;;;;;;;;10.10;99.90;;;;;;5014552;28;20381;-74
2022/03/18 01:23:30;;;;;;;;;;;10.10;99.90;;;;;;5014906;28;20016;-74
2022/03/18 01:25:56;;;;;;;;;;;10.00;99.90;;;;;;5015162;28;19953;-74
2022/03/18 01:28:22;;;;;;;;;;;10.10;99.90;;;;;;5003567;28;19918;-73
2022/03/18 01:30:48;;;;;;;;;;;10.00;99.90;;;;;;4995426;28;20041;-74
2022/03/18 01:33:13;;;;;;;;;;;10.10;99.90;;;;;;4995046;28;19956;-73
2022/03/18 01:35:39;;;;;;;;;;;10.00;99.90;;;;;;4994772;28;20407;-74
2022/03/18 01:38:05;;;;;;;;;;;10.10;99.90;;;;;;4995084;28;19914;-74
2022/03/18 01:40:31;;;;;;;;;;;10.00;99.90;;;;;;4994943;28;19964;-73
2022/03/18 01:42:56;;;;;;;;;;;10.00;99.90;;;;;;4994607;28;19955;-73
2022/03/18 01:45:22;;;;;;;;;;;10.00;99.90;;;;;;4994528;28;19996;-74
2022/03/18 01:47:47;;;;;;;;;;;10.00;99.90;;;;;;4994696;28;19913;-73
2022/03/18 01:50:14;;;;;;;;;;;10.10;99.90;;;;;;4994630;28;20337;-74
2022/03/18 01:52:40;;;;;;;;;;;10.00;99.90;;;;;;4995071;28;19968;-74
2022/03/18 01:55:06;;;;;;;;;;;10.00;99.90;;;;;;4994545;28;19909;-74
2022/03/18 01:57:31;;;;;;;;;;;10.00;99.90;;;;;;4993708;28;19920;-74
2022/03/18 01:59:57;;;;;;;;;;;9.90;99.90;;;;;;4993147;28;19910;-74
2022/03/18 02:02:23;;;;;;;;;;;10.00;99.90;;;;;;4994437;28;19910;-74
2022/03/18 02:04:49;;;;;;;;;;;10.00;99.90;;;;;;4994695;28;19956;-74
2022/03/18 02:07:15;;;;;;;;;;;9.90;99.90;;;;;;4994524;28;19913;-74
2022/03/18 02:09:41;;;;;;;;;;;9.90;99.90;;;;;;4994166;28;19918;-73
2022/03/18 02:12:08;;;;;;;;;;;10.00;99.90;;;;;;4994116;28;19926;-74
2022/03/18 02:14:35;;;;;;;;;;;9.90;99.90;;;;;;4994530;28;20276;-74
2022/03/18 02:17:01;;;;;;;;;;;10.00;99.90;;;;;;4994237;28;19914;-74
2022/03/18 02:19:27;;;;;;;;;;;9.90;99.90;;;;;;4993290;28;19925;-74
2022/03/18 02:21:53;;;;;;;;;;;9.90;99.90;;;;;;4993947;28;19922;-74
2022/03/18 02:24:19;;;;;;;;;;;9.90;99.90;;;;;;4993971;28;19921;-74
2022/03/18 02:26:49;;;;;;;;;;;9.90;99.90;;;;;;4994129;28;19914;-73
2022/03/18 02:29:20;;;;;;;;;;;9.80;99.90;;;;;;4992271;28;20466;-74
2022/03/18 02:31:46;;;;;;;;;;;9.90;99.90;;;;;;4994014;28;19921;-74
2022/03/18 02:34:12;;;;;;;;;;;9.90;99.90;;;;;;4993614;28;19910;-74
2022/03/18 02:36:38;;;;;;;;;;;9.90;99.90;;;;;;4993852;28;19910;-74
2022/03/18 02:39:04;;;;;;;;;;;9.90;99.90;;;;;;4994248;28;20012;-74
2022/03/18 02:41:29;;;;;;;;;;;9.90;99.90;;;;;;4993737;28;20370;-74
2022/03/18 02:43:55;;;;;;;;;;;9.90;99.90;;;;;;4994110;28;19996;-73
2022/03/18 02:46:21;;;;;;;;;;;9.80;99.90;;;;;;4993779;28;20329;-73
2022/03/18 02:48:47;;;;;;;;;;;9.80;99.90;;;;;;4993779;28;19936;-73
2022/03/18 02:51:13;;;;;;;;;;;9.80;99.90;;;;;;4993331;28;20377;-73
2022/03/18 02:53:39;;;;;;;;;;;9.80;99.90;;;;;;4993690;28;20329;-73
2022/03/18 02:56:04;;;;;;;;;;;9.80;99.90;;;;;;4993888;28;19909;-73
2022/03/18 02:58:30;;;;;;;;;;;9.80;99.90;;;;;;4993441;28;19910;-74
2022/03/18 03:00:56;;;;;;;;;;;9.80;99.90;;;;;;4993689;28;19933;-74
2022/03/18 03:03:22;;;;;;;;;;;9.80;99.90;;;;;;4993588;28;19910;-74
2022/03/18 03:08:51;;;;;;;;;;;9.60;99.90;;;;;;4933499;29;19950;-74
2022/03/18 03:11:17;;;;;;;;;;;9.60;99.90;;;;;;4945748;29;20331;-73
2022/03/18 03:13:42;;;;;;;;;;;9.70;99.90;;;;;;4952129;29;19926;-73
2022/03/18 03:16:08;;;;;;;;;;;9.70;99.90;;;;;;4952718;29;19910;-74
2022/03/18 03:18:34;;;;;;;;;;;9.60;99.90;;;;;;4952035;29;19911;-74
2022/03/18 03:21:00;;;;;;;;;;;9.70;99.90;;;;;;4952388;28;19919;-74
2022/03/18 03:23:25;;;;;;;;;;;9.70;99.90;;;;;;4952226;29;19929;-74
2022/03/18 03:25:52;;;;;;;;;;;9.70;99.90;;;;;;4952293;29;20437;-74
2022/03/18 03:28:17;;;;;;;;;;;9.70;99.90;;;;;;4952722;29;20005;-74
2022/03/18 03:30:44;;;;;;;;;;;9.70;99.90;;;;;;4951800;29;20005;-73
2022/03/18 03:33:09;;;;;;;;;;;9.70;99.90;;;;;;4952495;29;19910;-73
2022/03/18 03:35:35;;;;;;;;;;;9.70;99.90;;;;;;4951652;29;19937;-74
2022/03/18 03:38:01;;;;;;;;;;;9.60;99.90;;;;;;4953019;29;20389;-74
2022/03/18 03:40:27;;;;;;;;;;;9.60;99.90;;;;;;4986954;28;19913;-73
2022/03/18 03:42:53;;;;;;;;;;;9.60;99.90;;;;;;4993222;28;19916;-73
2022/03/18 03:45:18;;;;;;;;;;;9.60;99.90;;;;;;4992792;28;19937;-74
2022/03/18 03:47:44;;;;;;;;;;;9.60;99.90;;;;;;4992562;28;19925;-73
2022/03/18 03:50:09;;;;;;;;;;;9.60;99.90;;;;;;4993428;28;19910;-74
2022/03/18 03:52:35;;;;;;;;;;;9.60;99.90;;;;;;4991525;28;20358;-73
2022/03/18 03:55:01;;;;;;;;;;;9.70;99.90;;;;;;4993332;28;19909;-73
2022/03/18 03:57:27;;;;;;;;;;;9.60;99.90;;;;;;4993167;28;20000;-73
2022/03/18 03:59:52;;;;;;;;;;;9.60;99.90;;;;;;4992646;28;19952;-74
2022/03/18 04:02:20;;;;;;;;;;;9.50;99.90;;;;;;4993336;28;19909;-73
2022/03/18 04:04:48;;;;;;;;;;;9.50;99.90;;;;;;4992933;28;19956;-73
2022/03/18 04:07:14;;;;;;;;;;;9.50;99.90;;;;;;4996885;28;19972;-74
2022/03/18 04:09:40;;;;;;;;;;;9.60;99.90;;;;;;4996970;28;19953;-73
2022/03/18 04:12:05;;;;;;;;;;;9.50;99.90;;;;;;4996583;28;19913;-73
2022/03/18 04:14:31;;;;;;;;;;;9.60;99.90;;;;;;4996470;28;19921;-73
2022/03/18 04:16:56;;;;;;;;;;;9.60;99.90;;;;;;4996210;28;19914;-74
2022/03/18 04:19:22;;;;;;;;;;;9.60;99.90;;;;;;4996678;28;20342;-73
2022/03/18 04:21:48;;;;;;;;;;;9.60;99.90;;;;;;4996037;28;19929;-73
2022/03/18 04:24:13;;;;;;;;;;;9.60;99.90;;;;;;4996504;28;19921;-73
2022/03/18 04:26:39;;;;;;;;;;;9.60;99.90;;;;;;4996165;28;20345;-74
2022/03/18 04:29:04;;;;;;;;;;;9.50;99.90;;;;;;4995633;28;19929;-73
2022/03/18 04:31:30;;;;;;;;;;;9.60;99.90;;;;;;4996103;28;19909;-74
2022/03/18 04:33:55;;;;;;;;;;;9.60;99.90;;;;;;4995117;28;20337;-74
2022/03/18 04:36:21;;;;;;;;;;;9.60;99.90;;;;;;4996314;28;19910;-73
2022/03/18 04:38:46;;;;;;;;;;;9.70;99.90;;;;;;4996042;28;19910;-74
2022/03/18 04:41:12;;;;;;;;;;;9.60;99.90;;;;;;5000143;28;19921;-73
2022/03/18 04:43:37;;;;;;;;;;;9.60;99.90;;;;;;5014025;28;19914;-73
2022/03/18 04:46:03;;;;;;;;;;;9.60;99.90;;;;;;5015611;28;19917;-74
2022/03/18 04:48:28;;;;;;;;;;;9.50;99.90;;;;;;4997828;28;20262;-74
2022/03/18 04:50:54;;;;;;;;;;;9.50;99.90;;;;;;4995905;28;20424;-73
2022/03/18 04:53:19;;;;;;;;;;;9.50;99.90;;;;;;4995819;28;19910;-73
2022/03/18 04:55:45;;;;;;;;;;;9.60;99.90;;;;;;4995684;28;19964;-73
2022/03/18 04:58:11;;;;;;;;;;;9.70;99.90;;;;;;4995624;28;19963;-73
2022/03/18 05:00:36;;;;;;;;;;;9.70;99.90;;;;;;4996044;28;19910;-73
2022/03/18 05:03:02;;;;;;;;;;;9.50;99.90;;;;;;4995759;28;19919;-74
2022/03/18 05:05:28;;;;;;;;;;;9.60;99.90;;;;;;4998226;28;19922;-74
2022/03/18 05:07:53;;;;;;;;;;;9.60;99.90;;;;;;5003227;28;19941;-74
2022/03/18 05:10:19;;;;;;;;;;;9.50;99.90;;;;;;4995640;28;19910;-73
2022/03/18 05:12:48;;;;;;;;;;;9.60;99.90;;;;;;4998511;28;19920;-75
2022/03/18 05:15:13;;;;;;;;;;;9.60;99.90;;;;;;5015327;28;20004;-73
2022/03/18 05:17:39;;;;;;;;;;;9.50;99.90;;;;;;5013728;28;19945;-74
2022/03/18 05:20:06;;;;;;;;;;;9.50;99.90;;;;;;5014284;28;20359;-74
2022/03/18 05:22:32;;;;;;;;;;;9.50;99.90;;;;;;5014562;28;20352;-74
2022/03/18 05:24:58;;;;;;;;;;;9.50;99.90;;;;;;5008115;28;20354;-75
2022/03/18 05:27:24;;;;;;;;;;;9.60;99.90;;;;;;4994854;28;19920;-76
2022/03/18 05:29:49;;;;;;;;;;;9.60;99.90;;;;;;4999676;28;19917;-74
2022/03/18 05:32:15;;;;;;;;;;;9.50;99.90;;;;;;5007555;28;19913;-73
2022/03/18 05:34:41;;;;;;;;;;;9.50;99.90;;;;;;5008261;28;20328;-73
2022/03/18 05:37:06;;;;;;;;;;;9.50;99.90;;;;;;5014373;28;19909;-74
2022/03/18 05:39:32;;;;;;;;;;;9.50;99.90;;;;;;5013695;28;19909;-73
2022/03/18 05:41:58;;;;;;;;;;;9.50;99.90;;;;;;4994210;28;20404;-70
2022/03/18 05:44:24;;;;;;;;;;;9.50;99.90;;;;;;4999120;28;19922;-74
2022/03/18 05:46:50;;;;;;;;;;;9.50;99.90;;;;;;5000558;28;19925;-73
2022/03/18 05:49:17;;;;;;;;;;;9.40;99.90;;;;;;5009392;28;20300;-73
2022/03/18 05:51:42;;;;;;;;;;;9.50;99.90;;;;;;5005729;28;20391;-74
2022/03/18 05:54:08;;;;;;;;;;;9.50;99.90;;;;;;5011584;28;19916;-73
2022/03/18 05:56:53;;;;;;;;;;;9.50;99.90;;;;;;4993904;28;19997;-75
2022/03/18 05:59:26;;;;;;;;;;;9.50;99.90;;;;;;4975411;28;19953;-83
2022/03/18 06:01:56;;;;;;;;;;;9.50;99.90;;;;;;4973986;28;19917;-78
2022/03/18 06:04:22;;;;;;;;;;;9.50;99.90;;;;;;4975180;28;19917;-79
2022/03/18 06:06:48;;;;;;;;;;;9.40;99.90;;;;;;4984003;28;19914;-73
2022/03/18 06:11:58;;;;;;;;;;;9.30;99.90;;;;;;5007897;28;19956;-69
2022/03/18 06:14:25;;;;;;;;;;;9.40;99.90;;;;;;4996920;28;20306;-74
2022/03/18 06:16:52;;;;;;;;;;;9.30;99.90;;;;;;5011246;28;20380;-77
2022/03/18 16:07:45;;;;;;;;;;;12.80;99.90;;;;;;5198368;22;19926;-75
2022/03/18 16:10:11;;;;;;;;;;;12.90;99.90;;;;;;5015527;28;19917;-74
2022/03/18 16:12:36;;;;;;;;;;;13.10;99.90;;;;;;5020776;28;19945;-74
2022/03/18 16:15:06;;;;;;;;;;;12.80;99.90;;;;;;5014554;28;20292;-76
2022/03/18 16:17:33;;;;;;;;;;;12.80;99.90;;;;;;5015976;28;19917;-74
2022/03/18 16:19:59;;;;;;;;;;;12.80;99.90;;;;;;5015948;28;20008;-74
2022/03/18 16:22:32;;;;;;;;;;;12.70;99.90;;;;;;5014757;28;19936;-74
2022/03/18 16:25:03;;;;;;;;;;;12.70;99.90;;;;;;5015112;28;20318;-76
2022/03/18 16:27:29;;;;;;;;;;;12.70;99.90;;;;;;5016076;28;20357;-73
2022/03/18 16:29:56;;;;;;;;;;;12.80;99.90;;;;;;5015648;28;19936;-74
2022/03/18 16:32:23;;;;;;;;;;;12.80;99.90;;;;;;5016056;28;20410;-74
2022/03/18 16:34:49;;;;;;;;;;;12.80;99.90;;;;;;5014572;28;19909;-74
2022/03/18 16:37:16;;;;;;;;;;;12.70;99.90;;;;;;5016167;28;20361;-80
2022/03/18 16:39:42;;;;;;;;;;;12.70;99.90;;;;;;5023049;28;20391;-73
2022/03/18 16:42:07;;;;;;;;;;;12.70;99.90;;;;;;5014895;28;19913;-74
2022/03/18 16:44:33;;;;;;;;;;;12.70;99.90;;;;;;5015335;28;19913;-73
2022/03/18 16:49:44;;;;;;;;;;;12.40;99.90;;;;;;5013729;28;19961;-73
2022/03/18 16:52:09;;;;;;;;;;;12.40;99.90;;;;;;5014183;28;19910;-74
2022/03/18 16:54:35;;;;;;;;;;;12.40;99.90;;;;;;5015244;28;19920;-74
2022/03/18 16:57:00;;;;;;;;;;;12.50;99.90;;;;;;5015268;28;19920;-74
2022/03/18 16:59:26;;;;;;;;;;;12.40;99.90;;;;;;5021486;28;19960;-74
2022/03/18 17:01:52;;;;;;;;;;;12.40;99.90;;;;;;5012986;28;19936;-74
2022/03/18 17:04:20;;;;;;;;;;;12.30;99.90;;;;;;5014731;28;19909;-74
2022/03/18 17:06:45;;;;;;;;;;;12.30;99.90;;;;;;5023297;28;19964;-74
2022/03/18 17:09:13;;;;;;;;;;;12.30;99.90;;;;;;5028329;28;19995;-74
2022/03/18 17:11:39;;;;;;;;;;;12.40;99.90;;;;;;5019212;28;19920;-74
2022/03/18 17:14:05;;;;;;;;;;;12.40;99.90;;;;;;5025483;28;19913;-74
2022/03/18 17:16:30;;;;;;;;;;;12.50;99.90;;;;;;5033572;28;19913;-73
2022/03/18 17:18:56;;;;;;;;;;;12.30;99.90;;;;;;5034121;28;19909;-74
2022/03/18 17:21:21;;;;;;;;;;;12.30;99.90;;;;;;5025560;28;19988;-74
2022/03/18 17:23:47;;;;;;;;;;;12.40;99.90;;;;;;5011761;28;19960;-76
2022/03/18 18:07:38;;;;;;;;;;;11.50;99.90;;;;;;5572576;22;19936;-76
2022/03/18 18:10:04;;;;;;;;;;;11.50;99.90;;;;;;5072541;28;20298;-75
2022/03/18 18:12:30;;;;;;;;;;;11.50;99.90;;;;;;5073745;28;19995;-78
2022/03/18 18:14:56;;;;;;;;;;;11.40;99.90;;;;;;5071451;28;19951;-78
2022/03/18 18:17:22;;;;;;;;;;;11.40;99.90;;;;;;5073643;28;19920;-77
2022/03/18 18:22:31;;;;;;;;;;;11.30;99.90;;;;;;5053739;28;19916;-75
2022/03/18 18:24:57;;;;;;;;;;;11.30;99.90;;;;;;5053949;28;19909;-74
2022/03/18 18:27:24;;;;;;;;;;;11.20;99.90;;;;;;5053281;28;19913;-74
2022/03/18 18:29:51;;;;;;;;;;;11.20;99.90;;;;;;5053281;28;20296;-74
2022/03/18 18:32:17;;;;;;;;;;;11.10;99.90;;;;;;5053442;28;19913;-74
2022/03/18 18:34:43;;;;;;;;;;;11.20;99.90;;;;;;5053180;28;19908;-75
2022/03/18 18:37:08;;;;;;;;;;;11.20;99.90;;;;;;5053697;28;20015;-75
2022/03/18 18:39:35;;;;;;;;;;;11.00;99.90;;;;;;5053226;28;19959;-75
2022/03/18 18:42:04;;;;;;;;;;;11.10;99.90;;;;;;5067553;28;19908;-75
2022/03/18 18:44:30;;;;;;;;;;;10.90;99.90;;;;;;5072998;28;20026;-75
2022/03/18 18:46:56;;;;;;;;;;;11.00;99.90;;;;;;5065946;28;19951;-75
2022/03/18 18:49:21;;;;;;;;;;;11.00;99.90;;;;;;5061168;28;20023;-75
2022/03/18 18:51:48;;;;;;;;;;;11.10;99.90;;;;;;5072132;28;20304;-75
2022/03/18 18:54:14;;;;;;;;;;;11.00;99.90;;;;;;5072966;28;19914;-75
2022/03/18 18:56:41;;;;;;;;;;;11.00;99.90;;;;;;5072749;28;20338;-75
2022/03/18 18:59:06;;;;;;;;;;;11.00;99.90;;;;;;5055057;28;20379;-75
2022/03/18 19:01:32;;;;;;;;;;;10.90;99.90;;;;;;5052937;28;19920;-75
2022/03/18 19:03:58;;;;;;;;;;;10.80;99.90;;;;;;5053018;28;19912;-75
2022/03/18 19:06:27;;;;;;;;;;;10.80;99.90;;;;;;5052751;28;19916;-75
2022/03/18 19:08:53;;;;;;;;;;;10.80;99.90;;;;;;5068432;28;19917;-75
2022/03/18 19:11:19;;;;;;;;;;;11.00;99.90;;;;;;5072832;28;20038;-74
2022/03/18 19:13:44;;;;;;;;;;;10.80;99.90;;;;;;5071215;28;19908;-75
2022/03/18 19:16:10;;;;;;;;;;;10.60;99.90;;;;;;5053156;28;20379;-76
2022/03/18 19:18:36;;;;;;;;;;;10.80;99.90;;;;;;5059296;28;19974;-76
2022/03/18 19:21:04;;;;;;;;;;;10.80;99.90;;;;;;5074723;28;19982;-76
2022/03/18 19:23:30;;;;;;;;;;;10.80;99.90;;;;;;5072955;28;19908;-76
2022/03/18 19:25:56;;;;;;;;;;;10.80;99.90;;;;;;5063061;28;19919;-74
2022/03/18 19:28:22;;;;;;;;;;;10.80;99.90;;;;;;5055653;28;19916;-75
2022/03/18 19:30:49;;;;;;;;;;;10.70;99.90;;;;;;5051567;28;19916;-77
2022/03/18 19:33:15;;;;;;;;;;;10.70;99.90;;;;;;5067309;28;19915;-76
2022/03/18 19:35:41;;;;;;;;;;;10.70;99.90;;;;;;5074555;28;19912;-76
2022/03/18 19:38:07;;;;;;;;;;;10.60;99.90;;;;;;5061808;28;20276;-76
2022/03/18 19:40:35;;;;;;;;;;;10.70;99.90;;;;;;5056462;28;19908;-76
2022/03/18 19:43:05;;;;;;;;;;;10.60;99.90;;;;;;5069801;22;19948;-76
2022/03/18 19:45:31;;;;;;;;;;;10.50;99.90;;;;;;5022548;28;19917;-75
2022/03/18 19:47:57;;;;;;;;;;;10.60;99.90;;;;;;5019023;28;19993;-74
2022/03/18 19:50:23;;;;;;;;;;;10.50;99.90;;;;;;5025822;28;20067;-75
2022/03/18 19:52:48;;;;;;;;;;;10.50;99.90;;;;;;5031284;28;19910;-75
2022/03/18 19:55:14;;;;;;;;;;;10.40;99.90;;;;;;5022486;28;19913;-75
2022/03/18 20:03:26;;;;;;;;;;;10.20;99.90;;;;;;4991326;28;19948;-75
2022/03/18 20:05:52;;;;;;;;;;;10.20;99.90;;;;;;4986571;28;19921;-76
2022/03/18 20:08:17;;;;;;;;;;;10.10;99.90;;;;;;4982310;28;19953;-75
2022/03/18 20:10:44;;;;;;;;;;;10.00;99.90;;;;;;4982570;28;19942;-75
2022/03/18 20:13:10;;;;;;;;;;;10.00;99.90;;;;;;4984462;28;20368;-75
2022/03/18 20:15:35;;;;;;;;;;;9.90;99.90;;;;;;4990618;28;19918;-75
2022/03/18 20:18:01;;;;;;;;;;;9.90;99.90;;;;;;4991538;28;19945;-75
2022/03/18 20:20:26;;;;;;;;;;;9.90;99.90;;;;;;4984306;28;19910;-75
2022/03/18 20:22:52;;;;;;;;;;;9.90;99.90;;;;;;4988437;28;19909;-77
2022/03/18 20:25:18;;;;;;;;;;;9.90;99.90;;;;;;4984350;28;19918;-75
2022/03/18 20:27:45;;;;;;;;;;;9.90;99.90;;;;;;4983483;28;19968;-75
2022/03/18 20:30:11;;;;;;;;;;;9.90;99.90;;;;;;4991441;28;19920;-75
2022/03/18 20:32:37;;;;;;;;;;;9.70;99.90;;;;;;4987723;28;19917;-75
2022/03/18 20:35:04;;;;;;;;;;;9.80;99.90;;;;;;4986764;28;20478;-75
2022/03/18 20:37:33;;;;;;;;;;;9.80;99.90;;;;;;5008527;28;19912;-75
2022/03/18 20:39:58;;;;;;;;;;;9.90;99.90;;;;;;5034249;28;20040;-75
2022/03/18 20:42:24;;;;;;;;;;;9.80;99.90;;;;;;5033886;28;20395;-75
2022/03/18 20:44:49;;;;;;;;;;;9.80;99.90;;;;;;5022666;28;20364;-75
2022/03/18 20:47:15;;;;;;;;;;;9.80;99.90;;;;;;5033141;28;20263;-75
2022/03/18 20:49:40;;;;;;;;;;;9.70;99.90;;;;;;5028852;28;20395;-75
2022/03/18 20:52:06;;;;;;;;;;;9.60;99.90;;;;;;5030941;28;20414;-75
2022/03/18 20:54:31;;;;;;;;;;;9.60;99.90;;;;;;5032137;28;19909;-75
2022/03/18 20:56:57;;;;;;;;;;;9.60;99.90;;;;;;5034746;28;19909;-75
2022/03/18 20:59:22;;;;;;;;;;;9.60;99.90;;;;;;5035122;28;19913;-75
2022/03/18 21:01:48;;;;;;;;;;;9.60;99.90;;;;;;5034690;28;20316;-75
2022/03/18 21:04:14;;;;;;;;;;;9.70;99.90;;;;;;5027883;28;19948;-75
2022/03/18 21:06:39;;;;;;;;;;;9.70;99.90;;;;;;5014962;28;20009;-75
2022/03/18 21:09:07;;;;;;;;;;;9.70;99.90;;;;;;5015212;28;19936;-75
2022/03/18 21:11:33;;;;;;;;;;;9.60;99.90;;;;;;5015220;28;19956;-75
2022/03/18 21:13:59;;;;;;;;;;;9.70;99.90;;;;;;5014066;28;19953;-75
2022/03/18 21:16:25;;;;;;;;;;;9.50;99.90;;;;;;5015160;28;19910;-75
2022/03/18 21:18:51;;;;;;;;;;;9.50;99.90;;;;;;5015281;28;19914;-75
2022/03/18 21:21:18;;;;;;;;;;;9.50;99.90;;;;;;5014853;28;19956;-75
2022/03/18 21:23:45;;;;;;;;;;;9.40;99.90;;;;;;5015107;28;20004;-75
2022/03/18 21:31:42;;;;;;;;;;;9.60;99.90;;;;;;5015083;28;19968;-75
2022/03/18 21:34:07;;;;;;;;;;;9.40;99.90;;;;;;5013335;28;19916;-75
2022/03/18 21:36:33;;;;;;;;;;;9.50;99.90;;;;;;5014677;28;19910;-75
2022/03/18 21:39:01;;;;;;;;;;;9.40;99.90;;;;;;5014594;28;19916;-75
2022/03/18 21:41:27;;;;;;;;;;;9.40;99.90;;;;;;5014743;28;19910;-75
2022/03/18 21:43:52;;;;;;;;;;;9.40;99.90;;;;;;5014448;28;19921;-75
2022/03/18 21:46:18;;;;;;;;;;;9.30;99.90;;;;;;5015031;28;19913;-74
2022/03/18 21:48:43;;;;;;;;;;;9.20;99.90;;;;;;5013402;28;20371;-74
2022/03/18 21:51:09;;;;;;;;;;;9.40;99.90;;;;;;5014466;28;19920;-75
2022/03/18 21:53:34;;;;;;;;;;;9.50;99.90;;;;;;5014207;28;19913;-75
2022/03/18 21:56:00;;;;;;;;;;;9.50;99.90;;;;;;5014643;28;19916;-75
2022/03/18 21:58:25;;;;;;;;;;;9.40;99.90;;;;;;5012626;28;19916;-75
2022/03/18 22:00:51;;;;;;;;;;;9.50;99.90;;;;;;5014599;28;19913;-75
2022/03/18 22:03:16;;;;;;;;;;;9.60;99.90;;;;;;5012670;28;20292;-75
2022/03/18 22:05:42;;;;;;;;;;;9.50;99.90;;;;;;5023030;28;19916;-75
2022/03/18 22:08:08;;;;;;;;;;;9.60;99.90;;;;;;5029256;28;19921;-75
2022/03/18 22:10:34;;;;;;;;;;;9.50;99.90;;;;;;5014443;28;19913;-75
2022/03/18 22:13:00;;;;;;;;;;;9.70;99.90;;;;;;5014355;28;19921;-75
2022/03/18 22:15:26;;;;;;;;;;;9.50;99.90;;;;;;5014010;28;19941;-75
2022/03/18 22:17:52;;;;;;;;;;;9.70;99.90;;;;;;5014331;28;19956;-75
2022/03/18 22:20:20;;;;;;;;;;;9.70;99.90;;;;;;5014253;28;19910;-75
2022/03/18 22:22:47;;;;;;;;;;;9.80;99.90;;;;;;5013826;28;19921;-75
2022/03/18 22:25:13;;;;;;;;;;;9.80;99.90;;;;;;5014011;28;20012;-75
2022/03/18 22:27:43;;;;;;;;;;;9.80;99.90;;;;;;5012991;28;19910;-75
2022/03/18 22:30:09;;;;;;;;;;;9.80;99.90;;;;;;5013873;28;19914;-75
2022/03/18 22:32:35;;;;;;;;;;;9.80;99.90;;;;;;5013729;28;20357;-75
2022/03/18 22:35:01;;;;;;;;;;;9.80;99.90;;;;;;5013736;28;19906;-75
2022/03/18 22:37:27;;;;;;;;;;;9.90;99.90;;;;;;5013282;28;19914;-75
2022/03/18 22:39:52;;;;;;;;;;;9.80;99.90;;;;;;5012407;28;20339;-75
2022/03/18 22:42:18;;;;;;;;;;;9.90;99.90;;;;;;5013792;28;20293;-75
2022/03/18 22:44:43;;;;;;;;;;;9.90;99.90;;;;;;5013482;28;19964;-75
2022/03/18 22:47:09;;;;;;;;;;;9.90;99.90;;;;;;5013776;28;19917;-75
2022/03/18 22:49:35;;;;;;;;;;;9.80;99.90;;;;;;5012025;28;19920;-75
2022/03/18 22:52:00;;;;;;;;;;;9.90;99.90;;;;;;5013669;28;19917;-75
2022/03/18 22:54:26;;;;;;;;;;;9.80;99.90;;;;;;5013530;28;19910;-75
2022/03/18 22:56:51;;;;;;;;;;;9.80;99.90;;;;;;5013342;28;19980;-75
2022/03/18 22:59:18;;;;;;;;;;;9.80;99.90;;;;;;5013381;28;19909;-75
2022/03/18 23:01:43;;;;;;;;;;;9.80;99.90;;;;;;5028603;28;19964;-75
2022/03/18 23:04:09;;;;;;;;;;;9.90;99.90;;;;;;5033116;28;19948;-75
2022/03/18 23:06:35;;;;;;;;;;;9.90;99.90;;;;;;5032960;28;19909;-75
2022/03/18 23:09:00;;;;;;;;;;;9.90;99.90;;;;;;5030100;28;19925;-75
2022/03/18 23:14:10;;;;;;;;;;;9.90;99.90;;;;;;5013997;28;19952;-75
2022/03/18 23:16:36;;;;;;;;;;;9.90;99.90;;;;;;5013132;28;19945;-75
2022/03/18 23:19:02;;;;;;;;;;;9.90;99.90;;;;;;5013436;28;19913;-75
2022/03/18 23:21:28;;;;;;;;;;;9.90;99.90;;;;;;5011803;28;19914;-74
2022/03/18 23:23:53;;;;;;;;;;;9.90;99.90;;;;;;5011912;28;19917;-75
2022/03/18 23:26:19;;;;;;;;;;;10.00;99.90;;;;;;5013181;28;20471;-75
2022/03/18 23:28:45;;;;;;;;;;;9.90;99.90;;;;;;5013210;28;19913;-75
2022/03/18 23:31:11;;;;;;;;;;;9.90;99.90;;;;;;5013224;28;19919;-75
2022/03/18 23:33:37;;;;;;;;;;;9.90;99.90;;;;;;5012726;28;20431;-75
2022/03/18 23:36:04;;;;;;;;;;;10.00;99.90;;;;;;5011893;28;19976;-75
2022/03/18 23:38:29;;;;;;;;;;;9.90;99.90;;;;;;5013064;28;20401;-75
2022/03/18 23:40:55;;;;;;;;;;;9.90;99.90;;;;;;5012923;28;19996;-75
2022/03/18 23:43:20;;;;;;;;;;;9.90;99.90;;;;;;5012851;28;20008;-75
2022/03/18 23:45:47;;;;;;;;;;;9.90;99.90;;;;;;5013201;28;19909;-75
2022/03/18 23:48:13;;;;;;;;;;;9.90;99.90;;;;;;5012962;28;19948;-75
2022/03/18 23:50:38;;;;;;;;;;;9.90;99.90;;;;;;5012447;28;20364;-75
2022/03/18 23:53:04;;;;;;;;;;;9.90;99.90;;;;;;5012989;28;19910;-75
2022/03/18 23:55:29;;;;;;;;;;;9.90;99.90;;;;;;5012885;28;19941;-75
2022/03/18 23:57:55;;;;;;;;;;;9.90;99.90;;;;;;5013364;28;19964;-75
